createdAt,value
2022-11-09T00:01:41.990Z,10.14
2022-11-09T00:04:09.124Z,10.43
2022-11-09T00:06:36.116Z,10.38
2022-11-09T00:09:07.869Z,10.45
2022-11-09T00:11:36.666Z,10.53
2022-11-09T00:14:03.343Z,10.62
2022-11-09T00:16:29.987Z,10.70
2022-11-09T00:18:56.559Z,10.28
2022-11-09T00:21:24.835Z,10.22
2022-11-09T00:23:52.319Z,10.53
2022-11-09T00:26:20.581Z,10.57
2022-11-09T00:28:48.138Z,10.82
2022-11-09T00:31:17.864Z,10.80
2022-11-09T00:33:53.456Z,10.97
2022-11-09T00:36:21.296Z,11.01
2022-11-09T00:38:50.761Z,10.75
2022-11-09T00:41:18.075Z,10.97
2022-11-09T00:43:45.128Z,11.01
2022-11-09T00:46:12.065Z,11.03
2022-11-09T00:48:38.926Z,10.91
2022-11-09T00:51:06.030Z,10.91
2022-11-09T00:53:32.988Z,10.96
2022-11-09T00:56:11.241Z,10.91
2022-11-09T00:58:39.074Z,10.92
2022-11-09T01:01:11.963Z,10.99
2022-11-09T01:03:41.635Z,10.99
2022-11-09T01:06:09.515Z,11.05
2022-11-09T01:08:36.487Z,11.13
2022-11-09T01:11:08.160Z,11.09
2022-11-09T01:13:35.895Z,11.04
2022-11-09T01:16:15.337Z,10.94
2022-11-09T01:18:42.864Z,11.10
2022-11-09T01:21:11.604Z,10.99
2022-11-09T01:23:38.801Z,10.71
2022-11-09T01:26:08.367Z,10.84
2022-11-09T01:28:35.399Z,10.88
2022-11-09T01:31:06.359Z,11.00
2022-11-09T01:33:33.150Z,11.04
2022-11-09T01:36:03.806Z,11.02
2022-11-09T01:38:31.425Z,10.97
2022-11-09T01:40:58.012Z,10.97
2022-11-09T01:43:25.175Z,10.95
2022-11-09T01:45:56.476Z,11.02
2022-11-09T01:48:46.081Z,10.94
2022-11-09T01:51:30.335Z,10.85
2022-11-09T01:54:03.130Z,10.59
2022-11-09T01:56:31.023Z,10.77
2022-11-09T01:59:05.578Z,10.76
2022-11-09T02:01:33.602Z,10.88
2022-11-09T02:04:04.014Z,10.79
2022-11-09T02:06:31.994Z,11.15
2022-11-09T02:09:08.065Z,11.19
2022-11-09T02:11:36.563Z,11.02
2022-11-09T02:14:04.327Z,10.98
2022-11-09T02:16:31.786Z,10.83
2022-11-09T02:19:00.936Z,10.89
2022-11-09T02:21:31.059Z,10.89
2022-11-09T02:23:58.334Z,10.79
2022-11-09T02:26:28.296Z,10.94
2022-11-09T02:28:57.065Z,10.93
2022-11-09T02:31:28.218Z,11.06
2022-11-09T02:33:59.610Z,11.01
2022-11-09T02:36:26.294Z,10.87
2022-11-09T02:38:55.482Z,10.88
2022-11-09T02:41:24.197Z,10.70
2022-11-09T02:43:53.605Z,10.79
2022-11-09T02:46:32.890Z,10.72
2022-11-09T02:49:01.063Z,10.75
2022-11-09T02:51:28.322Z,10.87
2022-11-09T02:53:55.259Z,10.88
2022-11-09T02:56:23.189Z,10.84
2022-11-09T02:58:49.837Z,10.82
2022-11-09T03:01:17.667Z,10.90
2022-11-09T03:03:44.729Z,10.91
2022-11-09T03:06:12.563Z,10.84
2022-11-09T03:08:40.368Z,10.83
2022-11-09T03:11:07.000Z,10.86
2022-11-09T03:13:34.271Z,10.74
2022-11-09T03:16:06.142Z,10.83
2022-11-09T03:18:36.820Z,10.84
2022-11-09T03:21:05.128Z,11.02
2022-11-09T03:23:33.017Z,10.88
2022-11-09T03:26:00.786Z,11.03
2022-11-09T03:28:28.144Z,11.06
2022-11-09T03:30:55.030Z,11.11
2022-11-09T03:33:21.905Z,11.16
2022-11-09T03:35:48.907Z,11.22
2022-11-09T03:38:18.551Z,11.37
2022-11-09T03:40:46.139Z,11.49
2022-11-09T03:43:12.878Z,11.57
2022-11-09T03:45:40.570Z,11.67
2022-11-09T03:48:07.395Z,11.48
2022-11-09T03:50:35.401Z,11.66
2022-11-09T03:53:02.507Z,11.59
2022-11-09T03:55:29.308Z,11.45
2022-11-09T03:57:55.926Z,11.46
2022-11-09T04:00:23.517Z,11.40
2022-11-09T04:02:50.875Z,11.35
2022-11-09T04:05:17.659Z,11.30
2022-11-09T04:07:49.078Z,11.24
2022-11-09T04:10:16.516Z,11.20
2022-11-09T04:12:43.113Z,11.23
2022-11-09T04:15:10.442Z,11.30
2022-11-09T04:17:37.448Z,11.30
2022-11-09T04:20:05.565Z,11.22
2022-11-09T04:22:32.170Z,11.11
2022-11-09T04:24:59.070Z,11.16
2022-11-09T04:27:25.969Z,11.15
2022-11-09T04:29:52.676Z,11.14
2022-11-09T04:32:19.299Z,11.29
2022-11-09T04:34:45.880Z,11.29
2022-11-09T04:37:12.450Z,11.21
2022-11-09T04:39:39.119Z,11.33
2022-11-09T04:42:05.976Z,11.23
2022-11-09T04:44:32.601Z,11.20
2022-11-09T04:47:01.132Z,11.35
2022-11-09T04:49:27.756Z,11.33
2022-11-09T04:51:54.320Z,11.21
2022-11-09T04:54:20.927Z,11.33
2022-11-09T04:56:47.498Z,10.99
2022-11-09T04:59:14.083Z,11.35
2022-11-09T05:01:40.740Z,11.30
2022-11-09T05:04:07.424Z,11.44
2022-11-09T05:06:34.192Z,11.47
2022-11-09T05:09:04.031Z,11.35
2022-11-09T05:11:31.884Z,11.50
2022-11-09T05:13:59.115Z,11.34
2022-11-09T05:16:26.099Z,11.41
2022-11-09T05:18:52.747Z,11.55
2022-11-09T05:21:19.944Z,11.65
2022-11-09T05:23:58.764Z,11.58
2022-11-09T05:26:38.015Z,11.70
2022-11-09T05:29:10.310Z,11.60
2022-11-09T05:31:38.201Z,11.47
2022-11-09T05:34:06.577Z,11.47
2022-11-09T05:36:35.905Z,11.40
2022-11-09T05:39:02.914Z,11.35
2022-11-09T05:41:29.592Z,11.37
2022-11-09T05:43:56.208Z,11.20
2022-11-09T05:46:22.852Z,11.31
2022-11-09T05:48:49.446Z,11.42
2022-11-09T05:51:16.208Z,11.65
2022-11-09T05:53:46.446Z,11.33
2022-11-09T05:56:14.252Z,11.52
2022-11-09T05:58:41.912Z,11.35
2022-11-09T06:01:11.543Z,11.36
2022-11-09T06:03:38.901Z,11.30
2022-11-09T06:06:08.893Z,11.52
2022-11-09T06:08:36.404Z,11.63
2022-11-09T06:11:08.592Z,11.67
2022-11-09T06:13:35.532Z,11.73
2022-11-09T06:16:05.591Z,11.94
2022-11-09T06:18:33.987Z,12.08
2022-11-09T06:21:02.352Z,12.02
2022-11-09T06:23:30.124Z,11.96
2022-11-09T06:26:01.566Z,11.92
2022-11-09T06:28:28.707Z,11.93
2022-11-09T06:30:59.898Z,11.72
2022-11-09T06:33:26.711Z,11.77
2022-11-09T06:35:56.322Z,11.81
2022-11-09T06:38:23.854Z,11.68
2022-11-09T06:40:54.520Z,11.53
2022-11-09T06:43:21.813Z,11.94
2022-11-09T06:45:48.877Z,11.79
2022-11-09T06:48:15.618Z,12.12
2022-11-09T06:50:42.258Z,12.17
2022-11-09T06:53:12.859Z,12.24
2022-11-09T06:55:42.358Z,12.23
2022-11-09T06:58:15.797Z,12.02
2022-11-09T07:00:43.729Z,12.18
2022-11-09T07:03:14.752Z,12.31
2022-11-09T07:05:41.406Z,12.11
2022-11-09T07:08:08.270Z,12.38
2022-11-09T07:10:34.921Z,12.30
2022-11-09T07:13:03.217Z,12.37
2022-11-09T07:15:29.932Z,12.28
2022-11-09T07:17:58.186Z,12.15
2022-11-09T07:20:25.453Z,12.22
2022-11-09T07:22:52.429Z,12.24
2022-11-09T07:25:19.560Z,12.25
2022-11-09T07:27:46.673Z,12.20
2022-11-09T07:30:13.801Z,12.39
2022-11-09T07:33:07.599Z,12.49
2022-11-09T07:35:28.211Z,12.64
2022-11-09T07:37:54.899Z,12.57
2022-11-09T07:40:21.542Z,12.61
2022-11-09T07:42:48.181Z,12.44
2022-11-09T07:45:15.195Z,12.47
2022-11-09T07:47:41.931Z,12.37
2022-11-09T07:50:08.965Z,12.42
2022-11-09T07:52:35.577Z,12.40
2022-11-09T07:55:02.197Z,12.05
2022-11-09T07:57:28.780Z,12.44
2022-11-09T07:59:55.443Z,12.28
2022-11-09T08:02:22.149Z,12.86
2022-11-09T08:04:48.812Z,12.99
2022-11-09T08:07:15.533Z,13.09
2022-11-09T08:09:42.377Z,13.17
2022-11-09T08:12:08.930Z,13.12
2022-11-09T08:14:35.593Z,13.26
2022-11-09T08:17:02.238Z,12.98
2022-11-09T08:19:28.870Z,13.07
2022-11-09T08:21:57.728Z,13.23
2022-11-09T08:24:24.548Z,13.18
2022-11-09T08:26:51.234Z,13.06
2022-11-09T08:29:17.903Z,13.00
2022-11-09T08:31:44.548Z,12.86
2022-11-09T08:34:14.911Z,12.78
2022-11-09T08:36:41.591Z,12.75
2022-11-09T08:39:08.436Z,12.70
2022-11-09T08:41:35.132Z,12.71
2022-11-09T08:44:02.041Z,12.59
2022-11-09T08:46:28.820Z,12.68
2022-11-09T08:48:55.408Z,12.74
2022-11-09T08:51:22.163Z,12.89
2022-11-09T08:53:48.866Z,12.99
2022-11-09T08:56:18.414Z,13.11
2022-11-09T08:58:46.056Z,12.87
2022-11-09T09:01:17.043Z,13.15
2022-11-09T09:03:44.264Z,13.44
2022-11-09T09:06:10.907Z,13.52
2022-11-09T09:08:37.559Z,13.54
2022-11-09T09:11:05.572Z,13.59
2022-11-09T09:13:32.790Z,13.56
2022-11-09T09:16:09.513Z,13.73
2022-11-09T09:18:36.163Z,13.89
2022-11-09T09:21:06.375Z,13.84
2022-11-09T09:23:33.105Z,13.89
2022-11-09T09:25:59.769Z,13.93
2022-11-09T09:28:26.452Z,13.75
2022-11-09T09:30:53.302Z,14.10
2022-11-09T09:33:19.992Z,14.20
2022-11-09T09:35:47.623Z,13.80
2022-11-09T09:38:14.343Z,14.38
2022-11-09T09:40:48.156Z,14.33
2022-11-09T09:43:43.213Z,14.56
2022-11-09T09:46:34.583Z,14.65
2022-11-09T09:49:06.635Z,14.82
2022-11-09T09:51:53.050Z,14.96
2022-11-09T09:54:24.160Z,15.24
2022-11-09T09:56:53.336Z,15.24
2022-11-09T09:59:28.943Z,15.28
2022-11-09T10:01:57.395Z,15.22
2022-11-09T10:04:48.016Z,15.20
2022-11-09T10:07:32.526Z,15.60
2022-11-09T10:10:29.399Z,15.75
2022-11-09T10:13:12.979Z,15.61
2022-11-09T10:16:03.867Z,15.64
2022-11-09T10:18:45.394Z,15.54
2022-11-09T10:21:17.931Z,15.42
2022-11-09T10:24:15.951Z,15.48
2022-11-09T10:26:51.843Z,15.76
2022-11-09T10:29:23.647Z,16.01
2022-11-09T10:32:14.399Z,16.14
2022-11-09T10:34:53.273Z,16.06
2022-11-09T10:37:34.736Z,16.13
2022-11-09T10:40:12.003Z,16.10
2022-11-09T10:43:02.535Z,15.97
2022-11-09T10:46:00.052Z,16.11
2022-11-09T10:48:45.451Z,16.16
2022-11-09T10:51:46.416Z,16.21
2022-11-09T10:54:38.037Z,16.15
2022-11-09T10:57:24.924Z,16.00
2022-11-09T11:00:19.169Z,16.06
2022-11-09T11:03:37.207Z,16.22
2022-11-09T11:06:22.668Z,16.41
2022-11-09T11:09:07.729Z,16.57
2022-11-09T11:12:17.380Z,16.34
2022-11-09T11:15:02.893Z,16.25
2022-11-09T11:17:48.146Z,16.27
2022-11-09T11:20:35.903Z,16.02
2022-11-09T11:23:24.714Z,15.94
2022-11-09T11:26:25.752Z,15.90
2022-11-09T11:29:33.561Z,15.80
2022-11-09T11:32:20.309Z,15.84
2022-11-09T11:35:14.051Z,15.77
2022-11-09T11:38:11.073Z,15.58
2022-11-09T11:41:32.093Z,15.74
2022-11-09T11:44:49.163Z,15.91
2022-11-09T11:47:58.132Z,15.99
2022-11-09T11:50:46.617Z,15.93
2022-11-09T11:53:43.577Z,15.93
2022-11-09T11:56:34.676Z,15.95
2022-11-09T11:59:47.940Z,16.02
2022-11-09T12:02:48.368Z,16.06
2022-11-09T12:05:52.063Z,16.01
2022-11-09T12:08:59.409Z,16.12
2022-11-09T12:11:57.944Z,16.34
2022-11-09T12:14:54.087Z,16.28
2022-11-09T12:17:47.954Z,16.22
2022-11-09T12:21:08.590Z,16.36
2022-11-09T12:23:53.564Z,16.24
2022-11-09T12:27:11.032Z,16.13
2022-11-09T12:29:57.173Z,16.16
2022-11-09T12:32:45.505Z,16.13
2022-11-09T12:35:38.792Z,16.02
2022-11-09T12:38:32.372Z,16.03
2022-11-09T12:41:22.168Z,16.09
2022-11-09T12:44:17.051Z,16.22
2022-11-09T12:47:17.893Z,16.13
2022-11-09T12:50:04.190Z,15.94
2022-11-09T12:52:53.796Z,15.67
2022-11-09T12:56:03.037Z,15.71
2022-11-09T12:58:48.480Z,15.68
2022-11-09T13:01:33.706Z,15.59
2022-11-09T13:04:22.094Z,15.39
2022-11-09T13:07:07.398Z,15.50
2022-11-09T13:09:55.082Z,15.47
2022-11-09T13:12:42.860Z,15.17
2022-11-09T13:15:31.217Z,15.81
2022-11-09T13:18:25.774Z,15.76
2022-11-09T13:21:23.012Z,15.74
2022-11-09T13:24:31.158Z,15.74
2022-11-09T13:27:35.087Z,15.71
2022-11-09T13:30:23.646Z,15.69
2022-11-09T13:33:09.582Z,15.70
2022-11-09T13:35:59.202Z,15.54
2022-11-09T13:38:45.723Z,15.69
2022-11-09T13:41:31.779Z,15.63
2022-11-09T13:44:22.449Z,15.65
2022-11-09T13:47:21.813Z,15.46
2022-11-09T13:50:18.977Z,15.52
2022-11-09T13:53:04.188Z,15.59
2022-11-09T13:55:49.859Z,15.68
2022-11-09T13:58:40.572Z,15.68
2022-11-09T14:01:38.422Z,15.56
2022-11-09T14:04:28.150Z,15.63
2022-11-09T14:07:24.009Z,15.66
2022-11-09T14:10:19.174Z,15.62
2022-11-09T14:13:27.046Z,15.14
2022-11-09T14:16:34.714Z,15.41
2022-11-09T14:19:32.008Z,15.38
2022-11-09T14:22:19.601Z,15.39
2022-11-09T14:25:16.901Z,15.26
2022-11-09T14:28:02.069Z,15.10
2022-11-09T14:30:47.669Z,15.23
2022-11-09T14:33:35.433Z,15.23
2022-11-09T14:36:20.693Z,15.20
2022-11-09T14:39:34.915Z,15.17
2022-11-09T14:42:23.616Z,15.14
2022-11-09T14:45:15.544Z,14.95
2022-11-09T14:48:00.897Z,15.16
2022-11-09T14:50:46.877Z,14.94
2022-11-09T14:53:35.801Z,15.02
2022-11-09T14:56:22.058Z,14.92
2022-11-09T14:59:12.075Z,14.83
2022-11-09T15:02:11.258Z,14.90
2022-11-09T15:05:02.878Z,15.02
2022-11-09T15:07:48.480Z,14.97
2022-11-09T15:10:34.334Z,14.86
2022-11-09T15:13:29.747Z,14.34
2022-11-09T15:16:28.474Z,14.79
2022-11-09T15:19:36.760Z,14.76
2022-11-09T15:22:37.185Z,14.73
2022-11-09T15:25:34.054Z,14.71
2022-11-09T15:28:23.399Z,14.66
2022-11-09T15:31:13.379Z,14.66
2022-11-09T15:33:58.813Z,14.29
2022-11-09T15:36:46.128Z,14.61
2022-11-09T15:39:31.477Z,14.49
2022-11-09T15:42:17.466Z,14.65
2022-11-09T15:45:03.654Z,14.55
2022-11-09T15:47:57.553Z,14.46
2022-11-09T15:50:42.921Z,13.96
2022-11-09T15:53:28.247Z,14.16
2022-11-09T15:56:20.834Z,14.32
2022-11-09T15:59:07.127Z,13.79
2022-11-09T16:01:52.703Z,14.48
2022-11-09T16:04:38.880Z,14.28
2022-11-09T16:07:24.249Z,14.43
2022-11-09T16:10:13.605Z,14.20
2022-11-09T16:12:58.996Z,14.12
2022-11-09T16:15:44.306Z,14.10
2022-11-09T16:18:29.841Z,13.93
2022-11-09T16:21:17.108Z,14.08
2022-11-09T16:24:02.353Z,14.01
2022-11-09T16:26:47.907Z,14.05
2022-11-09T16:29:33.850Z,14.05
2022-11-09T16:32:19.644Z,14.17
2022-11-09T16:35:26.202Z,14.18
2022-11-09T16:38:11.798Z,14.23
2022-11-09T16:40:59.723Z,14.18
2022-11-09T16:43:48.622Z,14.01
2022-11-09T16:46:34.157Z,14.11
2022-11-09T16:49:19.251Z,14.15
2022-11-09T16:52:04.945Z,14.13
2022-11-09T16:54:50.429Z,13.96
2022-11-09T16:57:36.240Z,14.20
2022-11-09T17:00:25.631Z,14.20
2022-11-09T17:03:19.071Z,14.16
2022-11-09T17:06:04.602Z,14.10
2022-11-09T17:08:50.811Z,13.99
2022-11-09T17:11:36.180Z,13.94
2022-11-09T17:14:21.541Z,13.85
2022-11-09T17:17:06.640Z,13.92
2022-11-09T17:19:51.774Z,14.03
2022-11-09T17:22:40.349Z,14.16
2022-11-09T17:25:29.912Z,14.19
2022-11-09T17:28:15.240Z,14.23
2022-11-09T17:31:00.666Z,14.24
2022-11-09T17:33:46.091Z,14.22
2022-11-09T17:36:57.320Z,14.17
2022-11-09T17:39:37.844Z,14.12
2022-11-09T17:42:22.969Z,14.17
2022-11-09T17:45:08.624Z,14.20
2022-11-09T17:47:53.754Z,14.09
2022-11-09T17:50:38.754Z,13.99
2022-11-09T17:53:24.165Z,13.98
2022-11-09T17:56:10.063Z,13.93
2022-11-09T17:58:55.414Z,13.98
2022-11-09T18:01:42.048Z,13.80
2022-11-09T18:04:27.793Z,13.83
2022-11-09T18:07:13.342Z,13.72
2022-11-09T18:09:58.479Z,13.60
2022-11-09T18:12:43.773Z,13.68
2022-11-09T18:15:29.190Z,13.76
2022-11-09T18:18:14.376Z,13.86
2022-11-09T18:21:05.684Z,13.94
2022-11-09T18:23:50.851Z,13.69
2022-11-09T18:26:36.179Z,13.51
2022-11-09T18:29:21.856Z,13.23
2022-11-09T18:32:07.206Z,13.14
2022-11-09T18:34:52.605Z,13.21
2022-11-09T18:37:38.278Z,12.93
2022-11-09T18:40:23.972Z,12.73
2022-11-09T18:43:09.116Z,12.61
2022-11-09T18:46:06.009Z,12.38
2022-11-09T18:48:53.005Z,12.31
2022-11-09T18:51:38.044Z,12.23
2022-11-09T18:54:23.292Z,12.22
2022-11-09T18:57:08.955Z,12.30
2022-11-09T18:59:54.972Z,11.38
2022-11-09T19:02:40.606Z,12.24
2022-11-09T19:05:26.204Z,11.71
2022-11-09T19:08:11.708Z,12.14
2022-11-09T19:10:57.097Z,12.30
2022-11-09T19:13:42.483Z,12.15
2022-11-09T19:16:28.453Z,12.45
2022-11-09T19:19:15.107Z,12.62
2022-11-09T19:22:00.246Z,12.48
2022-11-09T19:24:46.134Z,12.45
2022-11-09T19:27:31.540Z,12.68
2022-11-09T19:30:17.391Z,12.54
2022-11-09T19:33:03.534Z,12.52
2022-11-09T19:36:23.475Z,12.19
2022-11-09T19:38:58.583Z,12.57
2022-11-09T19:41:44.234Z,12.46
2022-11-09T19:44:29.572Z,12.42
2022-11-09T19:47:14.730Z,12.53
2022-11-09T19:50:00.218Z,12.39
2022-11-09T19:52:45.577Z,12.38
2022-11-09T19:55:30.668Z,12.42
2022-11-09T19:58:15.782Z,12.47
2022-11-09T20:01:03.386Z,12.52
2022-11-09T20:03:50.907Z,12.58
2022-11-09T20:06:38.118Z,12.55
2022-11-09T20:09:23.757Z,12.23
2022-11-09T20:12:32.154Z,12.55
2022-11-09T20:15:19.006Z,12.58
2022-11-09T20:18:04.107Z,12.57
2022-11-09T20:20:49.318Z,12.57
2022-11-09T20:23:34.442Z,12.57
2022-11-09T20:26:20.011Z,12.45
2022-11-09T20:29:05.524Z,12.54
2022-11-09T20:31:50.678Z,12.33
2022-11-09T20:34:36.216Z,12.59
2022-11-09T20:37:21.555Z,12.63
2022-11-09T20:40:08.045Z,12.66
2022-11-09T20:42:53.432Z,12.57
2022-11-09T20:45:38.907Z,12.59
2022-11-09T20:48:52.226Z,12.56
2022-11-09T20:51:30.358Z,12.49
2022-11-09T20:54:19.474Z,12.53
2022-11-09T20:57:04.719Z,12.51
2022-11-09T20:59:50.133Z,12.34
2022-11-09T21:02:35.214Z,12.46
2022-11-09T21:05:20.944Z,12.53
2022-11-09T21:08:06.350Z,12.47
2022-11-09T21:10:52.066Z,12.53
2022-11-09T21:13:37.271Z,12.52
2022-11-09T21:16:23.276Z,12.67
2022-11-09T21:19:08.601Z,12.67
2022-11-09T21:21:53.753Z,12.62
2022-11-09T21:24:57.825Z,12.45
2022-11-09T21:28:01.391Z,12.49
2022-11-09T21:30:46.769Z,12.30
2022-11-09T21:33:32.077Z,12.23
2022-11-09T21:36:17.182Z,12.14
2022-11-09T21:39:03.315Z,12.14
2022-11-09T21:41:49.031Z,12.06
2022-11-09T21:44:34.800Z,11.78
2022-11-09T21:47:20.171Z,11.86
2022-11-09T21:50:09.700Z,11.81
2022-11-09T21:52:58.033Z,11.88
2022-11-09T21:55:42.970Z,11.68
2022-11-09T21:58:28.096Z,11.80
2022-11-09T22:01:13.798Z,11.79
2022-11-09T22:03:59.450Z,11.80
2022-11-09T22:06:45.123Z,11.73
2022-11-09T22:09:50.424Z,11.37
2022-11-09T22:12:56.142Z,11.68
2022-11-09T22:16:00.479Z,11.28
2022-11-09T22:19:04.632Z,11.57
2022-11-09T22:21:50.157Z,11.56
2022-11-09T22:24:35.395Z,11.56
2022-11-09T22:27:20.827Z,11.47
2022-11-09T22:30:06.580Z,11.51
2022-11-09T22:32:52.050Z,11.53
2022-11-09T22:35:37.474Z,11.52
2022-11-09T22:38:23.137Z,11.53
2022-11-09T22:41:11.510Z,11.57
2022-11-09T22:43:56.824Z,11.47
2022-11-09T22:46:42.186Z,11.42
2022-11-09T22:49:27.728Z,11.44
2022-11-09T22:52:13.467Z,11.50
2022-11-09T22:54:58.569Z,11.54
2022-11-09T22:57:43.692Z,11.24
2022-11-09T23:00:29.021Z,11.63
2022-11-09T23:03:14.975Z,11.62
2022-11-09T23:06:15.834Z,11.62
2022-11-09T23:09:01.521Z,11.51
2022-11-09T23:11:46.822Z,11.59
2022-11-09T23:14:50.715Z,11.58
2022-11-09T23:17:55.285Z,11.55
2022-11-09T23:20:41.795Z,11.55
2022-11-09T23:23:27.063Z,11.42
2022-11-09T23:26:12.517Z,11.34
2022-11-09T23:28:57.641Z,11.41
2022-11-09T23:31:43.097Z,11.41
2022-11-09T23:34:28.245Z,11.41
2022-11-09T23:37:13.376Z,11.41
2022-11-09T23:39:58.474Z,11.34
2022-11-09T23:42:43.515Z,11.25
2022-11-09T23:45:29.437Z,11.09
2022-11-09T23:48:18.365Z,11.17
2022-11-09T23:51:04.744Z,11.12
2022-11-09T23:53:50.158Z,10.92
2022-11-09T23:56:35.260Z,11.08
2022-11-09T23:59:20.263Z,11.18
